Time;durP1;ratioP1;P1;durP2;ratioP2;P2;SDS_P1;SDS_P2;PMS_P1;PMS_P2;Temp;Humidity;BMP_temperature;BMP_pressure;BME280_temperature;BME280_humidity;BME280_pressure;Samples;Min_cycle;Max_cycle;Signal;HPM_P1;HPM_P2
2023/05/03 00:01:36;;;;;;;5.35;3.50;;;;;;;;;;5114070;28;20020;-62
2023/05/03 00:04:02;;;;;;;4.97;3.50;;;;;;;;;;5114438;28;20031;-62
2023/05/03 00:06:28;;;;;;;3.85;3.10;;;;;;;;;;5114477;28;20023;-62
2023/05/03 00:08:54;;;;;;;5.30;4.07;;;;;;;;;;5113901;28;20027;-62
2023/05/03 00:11:21;;;;;;;4.85;3.33;;;;;;;;;;5112963;28;20081;-62
2023/05/03 00:13:47;;;;;;;5.18;3.72;;;;;;;;;;5113879;28;20035;-62
2023/05/03 00:16:13;;;;;;;4.43;3.30;;;;;;;;;;5112827;28;20539;-62
2023/05/03 00:18:39;;;;;;;5.05;3.65;;;;;;;;;;5113845;28;20046;-62
2023/05/03 00:21:05;;;;;;;6.45;3.70;;;;;;;;;;5113759;28;20038;-63
2023/05/03 00:23:31;;;;;;;5.43;3.53;;;;;;;;;;5114198;28;20024;-61
2023/05/03 00:25:58;;;;;;;5.03;3.58;;;;;;;;;;5113806;28;20024;-62
2023/05/03 00:28:24;;;;;;;5.10;3.60;;;;;;;;;;5113865;28;20032;-61
2023/05/03 00:30:51;;;;;;;5.20;3.30;;;;;;;;;;5113514;28;20589;-62
2023/05/03 00:33:17;;;;;;;4.82;3.42;;;;;;;;;;5113672;28;20032;-62
2023/05/03 00:35:43;;;;;;;5.10;3.53;;;;;;;;;;5113553;28;20024;-61
2023/05/03 00:38:09;;;;;;;4.28;3.40;;;;;;;;;;5113578;28;20035;-61
2023/05/03 00:40:35;;;;;;;5.47;3.78;;;;;;;;;;5113562;28;20031;-61
2023/05/03 00:43:02;;;;;;;5.78;3.75;;;;;;;;;;5112739;28;20022;-61
2023/05/03 00:45:30;;;;;;;4.35;3.10;;;;;;;;;;5113869;28;20031;-62
2023/05/03 00:47:56;;;;;;;5.50;4.32;;;;;;;;;;5113261;28;20051;-61
2023/05/03 00:50:22;;;;;;;4.65;3.28;;;;;;;;;;5113415;28;20105;-61
2023/05/03 00:52:48;;;;;;;4.63;3.22;;;;;;;;;;5113026;28;20012;-62
2023/05/03 00:55:15;;;;;;;4.75;3.22;;;;;;;;;;5113396;28;20089;-62
2023/05/03 00:57:41;;;;;;;7.80;4.43;;;;;;;;;;5113124;28;20193;-63
2023/05/03 01:00:09;;;;;;;7.03;3.70;;;;;;;;;;5113134;28;20448;-62
2023/05/03 01:02:35;;;;;;;7.43;4.03;;;;;;;;;;5112863;28;20028;-62
2023/05/03 01:05:02;;;;;;;4.85;3.45;;;;;;;;;;5113272;28;20089;-61
2023/05/03 01:07:45;;;;;;;5.03;3.33;;;;;;;;;;5113268;28;20068;-61
2023/05/03 01:10:34;;;;;;;5.57;3.50;;;;;;;;;;5112846;28;20028;-62
2023/05/03 01:13:06;;;;;;;6.25;4.05;;;;;;;;;;5113306;28;20034;-62
2023/05/03 01:15:49;;;;;;;6.03;3.97;;;;;;;;;;5113101;28;20039;-61
2023/05/03 01:18:25;;;;;;;7.10;4.15;;;;;;;;;;5112749;28;20100;-62
2023/05/03 01:20:52;;;;;;;6.43;3.60;;;;;;;;;;5112492;28;20043;-61
2023/05/03 01:23:42;;;;;;;3.78;3.20;;;;;;;;;;5112525;28;20020;-62
2023/05/03 01:26:15;;;;;;;4.85;3.47;;;;;;;;;;5112445;28;20498;-61
2023/05/03 01:28:42;;;;;;;5.65;3.80;;;;;;;;;;5112440;28;20020;-62
2023/05/03 01:31:07;;;;;;;5.53;3.80;;;;;;;;;;5112638;28;20032;-61
2023/05/03 01:33:40;;;;;;;6.07;3.60;;;;;;;;;;5112234;28;20471;-61
2023/05/03 01:36:08;;;;;;;4.25;3.38;;;;;;;;;;5112411;28;20106;-63
2023/05/03 01:38:36;;;;;;;4.80;3.78;;;;;;;;;;5112118;28;20024;-62
2023/05/03 01:41:03;;;;;;;7.22;4.13;;;;;;;;;;5112736;28;20048;-62
2023/05/03 01:43:30;;;;;;;5.60;3.65;;;;;;;;;;5112562;28;20095;-62
2023/05/03 01:45:56;;;;;;;6.55;3.80;;;;;;;;;;5112081;28;20031;-62
2023/05/03 01:48:22;;;;;;;4.43;3.75;;;;;;;;;;5112361;28;20023;-62
2023/05/03 01:50:48;;;;;;;6.55;4.00;;;;;;;;;;5111920;28;20028;-61
2023/05/03 01:53:14;;;;;;;5.38;3.45;;;;;;;;;;5111685;28;20098;-61
2023/05/03 01:55:40;;;;;;;6.57;3.78;;;;;;;;;;5111804;28;20039;-62
2023/05/03 01:58:06;;;;;;;5.40;3.63;;;;;;;;;;5112151;28;20092;-62
2023/05/03 02:00:32;;;;;;;6.55;4.35;;;;;;;;;;5112270;28;20027;-62
2023/05/03 02:02:58;;;;;;;5.20;4.22;;;;;;;;;;5112338;28;20100;-63
2023/05/03 02:05:24;;;;;;;5.78;3.47;;;;;;;;;;5111960;28;20062;-61
2023/05/03 02:07:50;;;;;;;5.88;4.03;;;;;;;;;;5111663;28;20035;-61
2023/05/03 02:10:17;;;;;;;5.35;3.60;;;;;;;;;;5111887;28;20384;-62
2023/05/03 02:12:43;;;;;;;4.35;3.38;;;;;;;;;;5111608;28;20028;-63
2023/05/03 02:15:10;;;;;;;5.93;4.10;;;;;;;;;;5111708;28;20458;-62
2023/05/03 02:17:36;;;;;;;6.80;4.15;;;;;;;;;;5111502;28;20022;-62
2023/05/03 02:20:04;;;;;;;5.68;3.83;;;;;;;;;;5111972;28;20055;-61
2023/05/03 02:22:30;;;;;;;7.65;3.78;;;;;;;;;;5111700;28;20020;-61
2023/05/03 02:24:57;;;;;;;5.40;3.83;;;;;;;;;;5111401;28;20020;-62
2023/05/03 02:27:23;;;;;;;8.18;3.80;;;;;;;;;;5111562;28;20031;-62
2023/05/03 02:29:49;;;;;;;4.72;3.35;;;;;;;;;;5111332;28;20027;-63
2023/05/03 02:32:15;;;;;;;5.80;3.70;;;;;;;;;;5111558;28;20019;-62
2023/05/03 02:34:43;;;;;;;5.63;3.72;;;;;;;;;;5111101;28;20073;-62
2023/05/03 02:37:09;;;;;;;5.85;3.72;;;;;;;;;;5110036;28;20066;-62
2023/05/03 02:39:35;;;;;;;6.45;3.78;;;;;;;;;;5111193;28;20039;-61
2023/05/03 02:42:01;;;;;;;5.03;3.53;;;;;;;;;;5111663;28;20472;-61
2023/05/03 02:44:27;;;;;;;5.20;3.42;;;;;;;;;;5111396;28;20024;-62
2023/05/03 02:46:54;;;;;;;6.80;4.15;;;;;;;;;;5111072;28;20020;-61
2023/05/03 02:49:20;;;;;;;5.57;3.55;;;;;;;;;;5111118;28;20502;-61
2023/05/03 02:51:46;;;;;;;4.95;3.47;;;;;;;;;;5110975;28;20061;-61
2023/05/03 02:54:12;;;;;;;6.00;3.90;;;;;;;;;;5111107;28;20041;-61
2023/05/03 02:56:38;;;;;;;7.90;3.45;;;;;;;;;;5110900;28;20192;-61
2023/05/03 02:59:04;;;;;;;4.82;3.55;;;;;;;;;;5111253;28;20510;-61
2023/05/03 03:01:31;;;;;;;6.30;3.42;;;;;;;;;;5111470;28;20024;-61
2023/05/03 03:03:57;;;;;;;5.57;3.65;;;;;;;;;;5110785;28;20028;-61
2023/05/03 03:06:23;;;;;;;6.75;3.72;;;;;;;;;;5113063;28;20471;-64
2023/05/03 03:08:49;;;;;;;5.20;3.50;;;;;;;;;;5115174;28;20028;-61
2023/05/03 03:11:15;;;;;;;5.38;3.75;;;;;;;;;;5115311;28;20364;-61
2023/05/03 03:13:41;;;;;;;5.50;3.40;;;;;;;;;;5115085;28;20487;-61
2023/05/03 03:16:08;;;;;;;5.50;3.72;;;;;;;;;;5115162;28;20024;-62
2023/05/03 03:18:34;;;;;;;5.40;3.47;;;;;;;;;;5114635;28;20510;-65
2023/05/03 03:21:03;;;;;;;5.65;4.28;;;;;;;;;;5115259;28;20038;-61
2023/05/03 03:23:29;;;;;;;4.78;3.53;;;;;;;;;;5115317;28;20472;-61
2023/05/03 03:25:55;;;;;;;5.45;4.25;;;;;;;;;;5114808;28;20031;-61
2023/05/03 03:28:21;;;;;;;6.30;3.97;;;;;;;;;;5114953;28;20027;-61
2023/05/03 03:30:47;;;;;;;6.75;4.13;;;;;;;;;;5114535;28;20027;-61
2023/05/03 03:33:13;;;;;;;5.22;3.50;;;;;;;;;;5114783;28;20023;-62
2023/05/03 03:35:40;;;;;;;5.05;3.60;;;;;;;;;;5114663;28;20034;-61
2023/05/03 03:38:06;;;;;;;4.65;3.40;;;;;;;;;;5114897;28;20069;-61
2023/05/03 03:40:32;;;;;;;5.53;4.03;;;;;;;;;;5114997;28;20411;-61
2023/05/03 03:42:58;;;;;;;6.28;3.85;;;;;;;;;;5114959;27;20015;-61
2023/05/03 03:45:24;;;;;;;5.28;3.72;;;;;;;;;;5114668;28;20124;-61
2023/05/03 03:47:50;;;;;;;6.43;3.42;;;;;;;;;;5114474;28;20027;-61
2023/05/03 03:50:16;;;;;;;4.57;3.20;;;;;;;;;;5114637;28;20024;-61
2023/05/03 03:52:42;;;;;;;6.95;3.78;;;;;;;;;;5114362;28;20020;-61
2023/05/03 03:55:08;;;;;;;5.18;3.80;;;;;;;;;;5114246;27;20038;-61
2023/05/03 03:57:34;;;;;;;6.32;3.95;;;;;;;;;;5114357;28;20023;-61
2023/05/03 04:00:00;;;;;;;7.25;3.38;;;;;;;;;;5114735;28;20034;-61
2023/05/03 04:02:26;;;;;;;4.88;3.55;;;;;;;;;;5114244;28;20011;-61
2023/05/03 04:04:52;;;;;;;4.68;3.38;;;;;;;;;;5114106;28;20349;-61
2023/05/03 04:07:18;;;;;;;4.47;3.40;;;;;;;;;;5114252;28;20428;-61
2023/05/03 04:09:45;;;;;;;5.68;4.18;;;;;;;;;;5113995;28;20016;-61
2023/05/03 04:12:11;;;;;;;4.80;3.22;;;;;;;;;;5114121;28;20038;-61
2023/05/03 04:14:37;;;;;;;5.20;3.33;;;;;;;;;;5113868;28;20031;-61
2023/05/03 04:17:03;;;;;;;3.90;3.30;;;;;;;;;;5113820;28;20100;-61
2023/05/03 04:19:29;;;;;;;5.43;3.50;;;;;;;;;;5114419;28;20028;-61
2023/05/03 04:21:55;;;;;;;4.72;3.40;;;;;;;;;;5113747;28;20032;-61
2023/05/03 04:24:21;;;;;;;7.57;3.58;;;;;;;;;;5113935;28;20098;-61
2023/05/03 04:26:50;;;;;;;4.90;3.53;;;;;;;;;;5113580;28;20200;-61
2023/05/03 04:29:18;;;;;;;5.50;3.58;;;;;;;;;;5113751;28;20399;-61
2023/05/03 04:31:45;;;;;;;5.15;3.65;;;;;;;;;;5113566;28;20020;-61
2023/05/03 04:34:14;;;;;;;4.72;3.47;;;;;;;;;;5113758;28;20028;-61
2023/05/03 04:36:41;;;;;;;5.45;3.50;;;;;;;;;;5113537;28;20051;-62
2023/05/03 04:39:10;;;;;;;5.30;3.80;;;;;;;;;;5113716;28;20047;-61
2023/05/03 04:41:36;;;;;;;6.38;3.75;;;;;;;;;;5113379;28;20032;-61
2023/05/03 04:44:02;;;;;;;4.75;3.33;;;;;;;;;;5113902;28;20038;-61
2023/05/03 04:46:28;;;;;;;6.13;3.97;;;;;;;;;;5113793;28;20012;-62
2023/05/03 04:48:54;;;;;;;4.43;3.17;;;;;;;;;;5113321;28;20035;-61
2023/05/03 04:51:20;;;;;;;6.00;4.15;;;;;;;;;;5112581;28;20015;-61
2023/05/03 04:53:46;;;;;;;6.10;4.15;;;;;;;;;;5113225;27;20124;-62
2023/05/03 04:56:12;;;;;;;4.65;3.22;;;;;;;;;;5113399;28;20026;-61
2023/05/03 04:58:38;;;;;;;5.55;3.20;;;;;;;;;;5113070;28;20020;-62
2023/05/03 05:01:04;;;;;;;5.07;3.25;;;;;;;;;;5113151;28;20085;-61
2023/05/03 05:03:32;;;;;;;5.85;3.67;;;;;;;;;;5113812;28;20127;-61
2023/05/03 05:05:58;;;;;;;5.80;4.30;;;;;;;;;;5113720;28;20487;-61
2023/05/03 05:08:25;;;;;;;4.47;3.00;;;;;;;;;;5113059;28;20030;-62
2023/05/03 05:10:51;;;;;;;5.03;3.38;;;;;;;;;;5112470;28;20027;-61
2023/05/03 05:13:17;;;;;;;5.88;3.10;;;;;;;;;;5113065;28;20027;-61
2023/05/03 05:15:43;;;;;;;5.22;3.10;;;;;;;;;;5112903;28;20040;-61
2023/05/03 05:18:09;;;;;;;6.50;3.63;;;;;;;;;;5113257;28;20035;-61
2023/05/03 05:20:35;;;;;;;5.75;3.55;;;;;;;;;;5112791;28;20550;-62
2023/05/03 05:23:01;;;;;;;4.88;3.67;;;;;;;;;;5113285;28;20036;-61
2023/05/03 05:25:27;;;;;;;6.88;3.20;;;;;;;;;;5112039;28;20066;-61
2023/05/03 05:27:53;;;;;;;4.68;3.13;;;;;;;;;;5112210;28;20498;-62
2023/05/03 05:30:19;;;;;;;6.35;3.53;;;;;;;;;;5111662;28;20122;-60
2023/05/03 05:32:45;;;;;;;5.55;3.40;;;;;;;;;;5111970;28;20066;-62
2023/05/03 05:35:11;;;;;;;4.90;3.85;;;;;;;;;;5112834;28;20075;-61
2023/05/03 05:37:37;;;;;;;6.50;3.30;;;;;;;;;;5112165;28;20076;-61
2023/05/03 05:40:03;;;;;;;4.85;3.10;;;;;;;;;;5112854;28;20098;-61
2023/05/03 05:42:29;;;;;;;4.60;2.78;;;;;;;;;;5112168;28;20036;-61
2023/05/03 05:44:56;;;;;;;5.78;3.65;;;;;;;;;;5111874;28;20027;-60
2023/05/03 05:47:22;;;;;;;6.07;3.63;;;;;;;;;;5112650;28;20028;-61
2023/05/03 05:49:48;;;;;;;6.20;3.45;;;;;;;;;;5112251;28;20139;-61
2023/05/03 05:52:14;;;;;;;6.50;3.35;;;;;;;;;;5112188;28;20032;-60
2023/05/03 05:54:40;;;;;;;5.15;3.28;;;;;;;;;;5111703;28;20108;-61
2023/05/03 05:57:06;;;;;;;9.80;3.45;;;;;;;;;;5112393;28;20066;-62
2023/05/03 05:59:32;;;;;;;8.07;3.17;;;;;;;;;;5112788;28;20024;-61
2023/05/03 06:01:59;;;;;;;5.68;3.22;;;;;;;;;;5112054;28;20409;-60
2023/05/03 06:04:25;;;;;;;6.70;3.60;;;;;;;;;;5111544;28;20027;-60
2023/05/03 06:06:51;;;;;;;5.40;3.60;;;;;;;;;;5109951;28;20038;-61
2023/05/03 06:09:17;;;;;;;10.88;3.78;;;;;;;;;;5111158;28;20024;-60
2023/05/03 06:11:43;;;;;;;7.00;3.72;;;;;;;;;;5110620;28;20544;-59
2023/05/03 06:14:10;;;;;;;7.72;3.40;;;;;;;;;;5111185;28;20035;-60
2023/05/03 06:16:39;;;;;;;7.43;2.83;;;;;;;;;;5111298;28;20151;-62
2023/05/03 06:19:05;;;;;;;5.72;3.55;;;;;;;;;;5111730;28;20015;-60
2023/05/03 06:21:31;;;;;;;4.78;3.22;;;;;;;;;;5110647;28;20034;-62
2023/05/03 06:23:57;;;;;;;6.25;2.88;;;;;;;;;;5110522;28;20049;-61
2023/05/03 06:26:23;;;;;;;5.22;3.55;;;;;;;;;;5110586;28;20039;-61
2023/05/03 06:28:49;;;;;;;6.50;3.38;;;;;;;;;;5111004;28;20043;-60
2023/05/03 06:31:16;;;;;;;7.03;3.47;;;;;;;;;;5111651;28;20103;-60
2023/05/03 06:33:42;;;;;;;4.18;2.78;;;;;;;;;;5110387;28;20058;-60
2023/05/03 06:36:08;;;;;;;5.20;3.03;;;;;;;;;;5110998;28;20491;-61
2023/05/03 06:38:34;;;;;;;5.43;3.15;;;;;;;;;;5110707;28;20049;-63
2023/05/03 06:41:00;;;;;;;5.75;2.58;;;;;;;;;;5108710;28;20036;-61
2023/05/03 06:43:26;;;;;;;5.57;3.13;;;;;;;;;;5108675;28;20515;-60
2023/05/03 06:45:52;;;;;;;7.55;3.78;;;;;;;;;;5111279;28;20050;-60
2023/05/03 06:48:18;;;;;;;6.55;3.60;;;;;;;;;;5110745;28;20030;-61
2023/05/03 06:50:44;;;;;;;4.10;2.50;;;;;;;;;;5109407;28;20480;-61
2023/05/03 06:53:10;;;;;;;5.28;3.03;;;;;;;;;;5109794;28;20023;-61
2023/05/03 06:55:36;;;;;;;7.60;3.35;;;;;;;;;;5109662;28;20126;-60
2023/05/03 06:58:03;;;;;;;6.30;3.25;;;;;;;;;;5110684;28;20031;-60
2023/05/03 07:00:29;;;;;;;5.32;2.80;;;;;;;;;;5111573;28;20043;-60
2023/05/03 07:02:55;;;;;;;7.22;3.10;;;;;;;;;;5110777;28;20540;-60
2023/05/03 07:05:21;;;;;;;7.97;3.13;;;;;;;;;;5111510;28;20027;-60
2023/05/03 07:07:47;;;;;;;5.82;3.20;;;;;;;;;;5111338;28;20027;-61
2023/05/03 07:10:13;;;;;;;7.78;3.60;;;;;;;;;;5111597;28;20024;-61
2023/05/03 07:12:40;;;;;;;8.35;3.35;;;;;;;;;;5111230;28;20031;-60
2023/05/03 07:15:06;;;;;;;9.90;3.03;;;;;;;;;;5110485;28;20035;-64
2023/05/03 07:17:32;;;;;;;5.88;3.00;;;;;;;;;;5111426;28;20126;-64
2023/05/03 07:19:58;;;;;;;5.55;3.50;;;;;;;;;;5110738;28;20026;-64
2023/05/03 07:22:24;;;;;;;7.47;3.03;;;;;;;;;;5111301;28;20395;-61
2023/05/03 07:24:53;;;;;;;7.28;3.60;;;;;;;;;;5111178;28;20024;-62
2023/05/03 07:27:19;;;;;;;5.95;3.10;;;;;;;;;;5111425;28;20074;-60
2023/05/03 07:29:45;;;;;;;3.85;2.67;;;;;;;;;;5110976;28;20024;-64
2023/05/03 07:32:11;;;;;;;11.50;3.15;;;;;;;;;;5110860;28;20050;-61
2023/05/03 07:34:37;;;;;;;3.75;2.47;;;;;;;;;;5110858;28;20031;-61
2023/05/03 07:37:03;;;;;;;4.90;2.83;;;;;;;;;;5111210;28;20540;-64
2023/05/03 07:39:29;;;;;;;5.93;2.55;;;;;;;;;;5110146;28;20031;-60
2023/05/03 07:41:55;;;;;;;4.85;3.03;;;;;;;;;;5110918;28;20035;-60
2023/05/03 07:44:21;;;;;;;4.75;2.78;;;;;;;;;;5111270;28;20019;-63
2023/05/03 07:46:47;;;;;;;6.30;3.10;;;;;;;;;;5109846;28;20052;-61
2023/05/03 07:49:13;;;;;;;5.05;2.80;;;;;;;;;;5111038;28;20161;-62
2023/05/03 07:51:40;;;;;;;5.93;2.90;;;;;;;;;;5111630;28;20066;-65
2023/05/03 07:54:06;;;;;;;5.80;2.50;;;;;;;;;;5114970;28;20106;-61
2023/05/03 07:56:32;;;;;;;4.82;2.28;;;;;;;;;;5115192;28;20428;-61
2023/05/03 07:58:59;;;;;;;6.95;2.38;;;;;;;;;;5115180;28;20031;-66
2023/05/03 08:01:25;;;;;;;4.10;2.38;;;;;;;;;;5111908;28;20038;-62
2023/05/03 08:03:51;;;;;;;4.95;2.53;;;;;;;;;;5114500;28;20387;-64
2023/05/03 08:06:17;;;;;;;5.90;2.30;;;;;;;;;;5114728;28;20080;-61
2023/05/03 08:08:43;;;;;;;6.05;2.60;;;;;;;;;;5113229;28;20024;-60
2023/05/03 08:11:10;;;;;;;4.00;2.60;;;;;;;;;;5114685;28;20035;-63
2023/05/03 08:13:36;;;;;;;5.05;2.70;;;;;;;;;;5114066;28;20548;-60
2023/05/03 08:16:02;;;;;;;4.13;2.28;;;;;;;;;;5114467;28;20402;-61
2023/05/03 08:18:28;;;;;;;5.85;2.85;;;;;;;;;;5114634;28;20026;-60
2023/05/03 08:20:54;;;;;;;6.32;3.15;;;;;;;;;;5114140;28;20118;-61
2023/05/03 08:23:20;;;;;;;4.93;2.80;;;;;;;;;;5113781;28;20047;-61
2023/05/03 08:25:46;;;;;;;7.85;2.67;;;;;;;;;;5114043;28;20019;-61
2023/05/03 08:28:13;;;;;;;8.10;3.20;;;;;;;;;;5114382;28;20068;-60
2023/05/03 08:30:40;;;;;;;4.25;2.05;;;;;;;;;;5114039;28;20395;-61
2023/05/03 08:33:08;;;;;;;5.72;2.08;;;;;;;;;;5113356;28;20035;-65
2023/05/03 08:35:34;;;;;;;5.82;2.72;;;;;;;;;;5113769;27;20535;-61
2023/05/03 08:38:00;;;;;;;5.22;3.25;;;;;;;;;;5114466;28;20498;-61
2023/05/03 08:40:27;;;;;;;5.35;2.50;;;;;;;;;;5114105;27;20027;-65
2023/05/03 08:42:55;;;;;;;7.63;2.60;;;;;;;;;;5113096;28;20475;-64
2023/05/03 08:45:21;;;;;;;5.22;3.20;;;;;;;;;;5113826;28;20391;-65
2023/05/03 08:47:52;;;;;;;5.05;2.55;;;;;;;;;;5112987;28;20020;-65
2023/05/03 08:50:19;;;;;;;4.05;2.25;;;;;;;;;;5113928;28;20049;-65
2023/05/03 08:52:45;;;;;;;5.50;2.70;;;;;;;;;;5113674;28;20396;-65
2023/05/03 08:55:11;;;;;;;5.03;2.53;;;;;;;;;;5113674;28;20038;-64
2023/05/03 08:57:37;;;;;;;3.60;2.47;;;;;;;;;;5113374;28;20108;-65
2023/05/03 09:00:05;;;;;;;5.88;3.10;;;;;;;;;;5113486;28;20028;-63
2023/05/03 09:02:38;;;;;;;6.22;3.10;;;;;;;;;;5112406;28;20050;-65
2023/05/03 09:05:04;;;;;;;4.40;2.63;;;;;;;;;;5112738;28;20096;-61
2023/05/03 09:07:30;;;;;;;5.78;2.35;;;;;;;;;;5113917;28;20066;-60
2023/05/03 09:09:59;;;;;;;5.68;2.70;;;;;;;;;;5113289;28;20479;-60
2023/05/03 09:12:35;;;;;;;3.10;2.28;;;;;;;;;;5113441;28;20112;-65
2023/05/03 09:15:02;;;;;;;3.63;2.47;;;;;;;;;;5113651;28;20495;-63
2023/05/03 09:17:28;;;;;;;4.28;2.90;;;;;;;;;;5113093;28;20019;-65
2023/05/03 09:19:58;;;;;;;4.25;2.63;;;;;;;;;;5112900;28;20148;-65
2023/05/03 09:22:28;;;;;;;4.18;2.55;;;;;;;;;;5112339;28;20051;-63
2023/05/03 09:24:55;;;;;;;7.30;2.47;;;;;;;;;;5108903;28;20032;-64
2023/05/03 09:27:21;;;;;;;4.38;2.50;;;;;;;;;;5112939;28;20035;-65
2023/05/03 09:29:47;;;;;;;5.45;2.70;;;;;;;;;;5112998;28;20106;-63
2023/05/03 09:32:13;;;;;;;3.22;2.22;;;;;;;;;;5111143;28;20035;-65
2023/05/03 09:34:39;;;;;;;7.43;3.10;;;;;;;;;;5112284;28;20035;-64
2023/05/03 09:37:05;;;;;;;5.50;2.22;;;;;;;;;;5112989;28;20031;-64
2023/05/03 09:39:32;;;;;;;4.93;2.92;;;;;;;;;;5113268;28;20076;-62
2023/05/03 09:41:59;;;;;;;4.65;2.70;;;;;;;;;;5111689;28;20032;-64
2023/05/03 09:44:54;;;;;;;5.03;2.22;;;;;;;;;;5112065;28;20125;-61
2023/05/03 09:47:20;;;;;;;2.85;2.03;;;;;;;;;;5079239;28;20036;-64
2023/05/03 09:49:47;;;;;;;4.00;2.58;;;;;;;;;;5092053;28;20158;-64
2023/05/03 09:52:13;;;;;;;4.07;2.33;;;;;;;;;;5092341;28;20056;-64
2023/05/03 09:54:39;;;;;;;5.50;2.40;;;;;;;;;;5092047;28;20619;-61
2023/05/03 09:57:07;;;;;;;4.70;2.50;;;;;;;;;;5092081;28;20035;-61
2023/05/03 09:59:33;;;;;;;3.80;2.33;;;;;;;;;;5108995;28;20027;-60
2023/05/03 10:02:01;;;;;;;5.70;3.28;;;;;;;;;;5112210;27;20031;-61
2023/05/03 10:04:28;;;;;;;3.40;2.22;;;;;;;;;;5112557;27;20027;-64
2023/05/03 10:07:03;;;;;;;4.45;2.42;;;;;;;;;;5111958;28;20031;-65
2023/05/03 10:09:38;;;;;;;5.25;3.05;;;;;;;;;;5112466;28;20479;-61
2023/05/03 10:12:07;;;;;;;7.03;3.08;;;;;;;;;;5112047;28;20035;-64
2023/05/03 10:14:33;;;;;;;4.47;2.40;;;;;;;;;;5109879;28;20104;-64
2023/05/03 10:17:00;;;;;;;5.15;2.78;;;;;;;;;;5092080;28;20058;-65
2023/05/03 10:19:26;;;;;;;6.10;2.35;;;;;;;;;;5091578;28;20069;-65
2023/05/03 10:21:56;;;;;;;8.25;3.10;;;;;;;;;;5091455;28;20032;-61
2023/05/03 10:24:22;;;;;;;6.38;2.40;;;;;;;;;;5091762;28;20028;-63
2023/05/03 10:26:49;;;;;;;6.20;2.22;;;;;;;;;;5091294;28;20073;-60
2023/05/03 10:29:44;;;;;;;8.57;2.90;;;;;;;;;;5098978;28;20028;-62
2023/05/03 10:32:29;;;;;;;5.28;2.38;;;;;;;;;;5111965;28;20518;-62
2023/05/03 10:34:57;;;;;;;3.63;2.27;;;;;;;;;;5111756;28;20574;-61
2023/05/03 10:37:25;;;;;;;5.93;2.38;;;;;;;;;;5111646;28;20437;-60
2023/05/03 10:39:52;;;;;;;8.30;4.60;;;;;;;;;;5111568;28;20034;-61
2023/05/03 10:42:21;;;;;;;12.70;5.55;;;;;;;;;;5111083;28;20051;-61
2023/05/03 10:44:51;;;;;;;17.42;5.38;;;;;;;;;;5110727;28;20045;-60
2023/05/03 10:47:17;;;;;;;16.40;6.97;;;;;;;;;;5111126;28;20031;-61
2023/05/03 10:49:43;;;;;;;15.95;5.60;;;;;;;;;;5111499;28;20103;-62
2023/05/03 10:52:28;;;;;;;13.40;5.28;;;;;;;;;;5111411;28;20115;-64
2023/05/03 10:54:54;;;;;;;13.70;5.43;;;;;;;;;;5111111;28;20128;-62
2023/05/03 10:57:20;;;;;;;23.75;5.70;;;;;;;;;;5111586;28;20054;-61
2023/05/03 10:59:47;;;;;;;8.88;4.75;;;;;;;;;;5110668;28;20476;-60
2023/05/03 11:02:16;;;;;;;10.57;4.90;;;;;;;;;;5112070;28;20074;-62
2023/05/03 11:04:44;;;;;;;10.57;4.45;;;;;;;;;;5114496;28;20034;-60
2023/05/03 11:07:19;;;;;;;13.80;4.72;;;;;;;;;;5111521;28;20024;-60
2023/05/03 11:09:45;;;;;;;10.68;4.32;;;;;;;;;;5111154;28;20028;-61
2023/05/03 11:12:11;;;;;;;15.75;4.60;;;;;;;;;;5111494;28;20024;-61
2023/05/03 11:14:38;;;;;;;10.30;4.18;;;;;;;;;;5109604;28;20363;-61
2023/05/03 11:17:04;;;;;;;12.70;4.95;;;;;;;;;;5109108;28;20113;-61
2023/05/03 11:19:31;;;;;;;6.85;4.03;;;;;;;;;;5109636;28;20031;-61
2023/05/03 11:21:57;;;;;;;9.55;4.75;;;;;;;;;;5109483;28;20173;-61
2023/05/03 11:24:23;;;;;;;8.50;4.47;;;;;;;;;;5109524;28;20019;-60
2023/05/03 11:26:49;;;;;;;9.10;4.22;;;;;;;;;;5111043;28;20120;-60
2023/05/03 11:29:16;;;;;;;10.13;4.13;;;;;;;;;;5114852;28;20016;-61
2023/05/03 11:31:42;;;;;;;8.55;3.78;;;;;;;;;;5114499;28;20026;-61
2023/05/03 11:34:09;;;;;;;9.65;3.92;;;;;;;;;;5113880;28;20077;-60
2023/05/03 11:36:35;;;;;;;8.32;3.75;;;;;;;;;;5114298;28;20114;-61
2023/05/03 11:39:04;;;;;;;10.45;4.20;;;;;;;;;;5115185;28;20059;-60
2023/05/03 11:41:30;;;;;;;8.52;4.15;;;;;;;;;;5114422;28;20028;-60
2023/05/03 11:43:56;;;;;;;7.82;3.88;;;;;;;;;;5114158;28;20023;-60
2023/05/03 11:46:25;;;;;;;5.55;3.17;;;;;;;;;;5113879;28;20028;-61
2023/05/03 11:48:51;;;;;;;9.02;4.03;;;;;;;;;;5113897;28;20031;-60
2023/05/03 11:51:21;;;;;;;7.18;3.50;;;;;;;;;;5113893;28;20036;-60
2023/05/03 11:53:48;;;;;;;7.22;3.30;;;;;;;;;;5114367;28;20039;-61
2023/05/03 11:56:16;;;;;;;5.88;3.63;;;;;;;;;;5113371;28;20031;-61
2023/05/03 11:59:08;;;;;;;9.50;3.83;;;;;;;;;;5113558;28;20027;-61
2023/05/03 12:01:34;;;;;;;6.32;3.45;;;;;;;;;;5110884;28;20028;-61
2023/05/03 12:04:01;;;;;;;6.80;3.70;;;;;;;;;;5114379;28;20502;-61
2023/05/03 12:06:28;;;;;;;7.50;3.92;;;;;;;;;;5114388;27;20031;-60
2023/05/03 12:08:55;;;;;;;7.97;4.20;;;;;;;;;;5113271;28;20047;-66
2023/05/03 12:11:21;;;;;;;7.28;3.75;;;;;;;;;;5113732;28;20035;-60
2023/05/03 12:13:57;;;;;;;7.18;3.33;;;;;;;;;;5113001;28;20040;-61
2023/05/03 12:16:23;;;;;;;8.68;3.88;;;;;;;;;;5112809;28;20057;-61
2023/05/03 12:18:49;;;;;;;6.15;3.33;;;;;;;;;;5112133;28;20019;-65
2023/05/03 12:21:16;;;;;;;7.47;4.10;;;;;;;;;;5113596;28;20088;-66
2023/05/03 12:23:42;;;;;;;7.60;3.72;;;;;;;;;;5112991;28;20023;-65
2023/05/03 12:26:08;;;;;;;6.57;3.70;;;;;;;;;;5113033;28;20042;-64
2023/05/03 12:28:34;;;;;;;7.88;4.30;;;;;;;;;;5113017;28;20099;-65
2023/05/03 12:31:00;;;;;;;8.32;3.90;;;;;;;;;;5114000;28;20027;-60
2023/05/03 12:33:26;;;;;;;9.13;4.18;;;;;;;;;;5114198;28;20476;-60
2023/05/03 12:35:52;;;;;;;7.50;4.28;;;;;;;;;;5113385;28;20075;-66
2023/05/03 12:38:18;;;;;;;4.75;3.40;;;;;;;;;;5111951;28;20072;-60
2023/05/03 12:40:45;;;;;;;6.53;3.95;;;;;;;;;;5113049;28;20035;-66
2023/05/03 12:43:11;;;;;;;6.43;4.30;;;;;;;;;;5112228;28;20024;-65
2023/05/03 12:45:37;;;;;;;6.13;3.95;;;;;;;;;;5113497;28;20498;-68
2023/05/03 12:48:03;;;;;;;6.80;4.25;;;;;;;;;;5113613;28;20091;-63
2023/05/03 12:50:29;;;;;;;10.27;5.03;;;;;;;;;;5113771;28;20027;-66
2023/05/03 12:52:56;;;;;;;7.40;3.95;;;;;;;;;;5112382;28;20028;-60
2023/05/03 12:55:22;;;;;;;14.90;4.43;;;;;;;;;;5113442;28;20032;-66
2023/05/03 12:57:48;;;;;;;6.88;4.30;;;;;;;;;;5113472;27;20454;-61
2023/05/03 13:00:16;;;;;;;7.60;3.72;;;;;;;;;;5112208;28;20103;-65
2023/05/03 13:02:42;;;;;;;6.80;3.88;;;;;;;;;;5113021;28;20503;-61
2023/05/03 13:05:08;;;;;;;7.72;4.05;;;;;;;;;;5111962;28;20023;-60
2023/05/03 13:07:34;;;;;;;6.80;3.65;;;;;;;;;;5112153;28;20028;-60
2023/05/03 13:10:00;;;;;;;7.60;3.63;;;;;;;;;;5113163;28;20062;-62
2023/05/03 13:12:26;;;;;;;13.25;4.05;;;;;;;;;;5112309;28;20048;-62
2023/05/03 13:14:53;;;;;;;9.20;4.22;;;;;;;;;;5111458;28;20444;-66
2023/05/03 13:17:21;;;;;;;5.50;3.40;;;;;;;;;;5113163;28;20069;-61
2023/05/03 13:19:47;;;;;;;5.80;3.22;;;;;;;;;;5112469;28;20036;-61
2023/05/03 13:22:13;;;;;;;6.85;3.92;;;;;;;;;;5113595;28;20406;-66
2023/05/03 13:24:40;;;;;;;6.38;3.58;;;;;;;;;;5113026;28;20035;-66
2023/05/03 13:27:06;;;;;;;6.72;3.97;;;;;;;;;;5113104;27;20043;-66
2023/05/03 13:29:32;;;;;;;7.90;3.80;;;;;;;;;;5112933;28;20023;-63
2023/05/03 13:31:58;;;;;;;8.38;3.95;;;;;;;;;;5111727;28;20019;-61
2023/05/03 13:34:25;;;;;;;7.70;3.70;;;;;;;;;;5112850;28;20035;-61
2023/05/03 13:36:51;;;;;;;10.25;4.60;;;;;;;;;;5112652;27;20023;-61
2023/05/03 13:39:17;;;;;;;5.75;3.53;;;;;;;;;;5112764;28;20443;-61
2023/05/03 13:41:44;;;;;;;5.05;3.22;;;;;;;;;;5112749;28;20051;-61
2023/05/03 13:44:10;;;;;;;5.90;3.63;;;;;;;;;;5112234;28;20107;-61
2023/05/03 13:46:36;;;;;;;6.53;3.95;;;;;;;;;;5112115;28;20028;-61
2023/05/03 13:49:04;;;;;;;5.18;3.45;;;;;;;;;;5112615;28;20015;-62
2023/05/03 13:51:30;;;;;;;9.10;4.35;;;;;;;;;;5111870;28;20033;-62
2023/05/03 13:53:58;;;;;;;9.20;4.28;;;;;;;;;;5112043;27;20471;-61
2023/05/03 13:56:24;;;;;;;6.60;3.63;;;;;;;;;;5112068;28;20032;-61
2023/05/03 13:58:50;;;;;;;6.13;3.78;;;;;;;;;;5108765;28;20024;-60
2023/05/03 14:01:16;;;;;;;7.05;4.13;;;;;;;;;;5110965;28;20502;-61
2023/05/03 14:03:43;;;;;;;6.63;4.35;;;;;;;;;;5112061;28;20055;-64
2023/05/03 14:06:10;;;;;;;7.45;4.30;;;;;;;;;;5111213;28;20471;-61
2023/05/03 14:08:36;;;;;;;6.50;3.75;;;;;;;;;;5111696;27;20032;-60
2023/05/03 14:11:02;;;;;;;5.97;4.00;;;;;;;;;;5112396;28;20051;-62
2023/05/03 14:13:29;;;;;;;5.15;4.00;;;;;;;;;;5112738;28;20391;-63
2023/05/03 14:15:55;;;;;;;5.95;3.88;;;;;;;;;;5111655;28;20507;-62
2023/05/03 14:18:21;;;;;;;4.93;3.80;;;;;;;;;;5111541;28;20048;-62
2023/05/03 14:20:49;;;;;;;6.53;4.00;;;;;;;;;;5111828;28;20050;-62
2023/05/03 14:23:18;;;;;;;5.18;3.70;;;;;;;;;;5111847;28;20490;-62
2023/05/03 14:25:44;;;;;;;5.40;4.20;;;;;;;;;;5111631;28;20076;-61
2023/05/03 14:28:10;;;;;;;4.93;3.85;;;;;;;;;;5111466;28;20039;-61
2023/05/03 14:30:36;;;;;;;7.95;4.18;;;;;;;;;;5111738;28;20024;-62
2023/05/03 14:33:02;;;;;;;4.88;3.63;;;;;;;;;;5111803;28;20023;-62
2023/05/03 14:35:28;;;;;;;6.25;4.13;;;;;;;;;;5111364;28;20388;-66
2023/05/03 14:37:55;;;;;;;5.28;3.90;;;;;;;;;;5110986;28;20043;-63
2023/05/03 14:40:21;;;;;;;5.38;4.15;;;;;;;;;;5111153;28;20027;-61
2023/05/03 14:42:47;;;;;;;9.18;4.38;;;;;;;;;;5111546;28;20030;-66